Time;durP1;ratioP1;P1;durP2;ratioP2;P2;SDS_P1;SDS_P2;PMS_P1;PMS_P2;Temp;Humidity;BMP_temperature;BMP_pressure;BME280_temperature;BME280_humidity;BME280_pressure;Samples;Min_cycle;Max_cycle;Signal;HPM_P1;HPM_P2
2023/09/01 00:03:29;;;;;;;2.72;1.80;;;20.00;99.90;;;;;;10121908;28;20032;-77
2023/09/01 00:08:19;;;;;;;2.78;1.88;;;19.80;99.90;;;;;;10122055;28;20376;-76
2023/09/01 00:13:10;;;;;;;1.77;1.17;;;19.90;99.90;;;;;;10107803;28;20032;-76
2023/09/01 00:18:02;;;;;;;1.63;1.10;;;19.80;99.90;;;;;;10129095;28;20029;-76
2023/09/01 00:22:53;;;;;;;3.38;1.25;;;19.80;99.90;;;;;;10137197;28;20383;-75
2023/09/01 00:27:44;;;;;;;2.28;0.95;;;19.90;99.90;;;;;;10143756;28;20044;-74
2023/09/01 00:32:35;;;;;;;1.35;1.10;;;19.90;99.90;;;;;;10145340;28;20028;-74
2023/09/01 00:37:26;;;;;;;4.15;1.33;;;19.90;99.90;;;;;;10113423;28;20135;-75
2023/09/01 00:42:17;;;;;;;2.65;1.15;;;19.90;99.90;;;;;;10118351;28;20170;-75
2023/09/01 00:47:08;;;;;;;1.73;1.10;;;19.90;99.90;;;;;;10146182;28;20035;-76
2023/09/01 00:51:59;;;;;;;1.63;1.13;;;20.00;99.90;;;;;;10115032;28;20131;-76
2023/09/01 00:56:53;;;;;;;1.63;1.38;;;19.90;99.90;;;;;;10126687;28;20107;-77
2023/09/01 01:01:44;;;;;;;4.40;1.03;;;20.00;99.90;;;;;;10157278;22;20052;-72
2023/09/01 01:06:48;;;;;;;6.15;1.33;;;19.90;99.90;;;;;;10141428;28;20036;-76
2023/09/01 01:11:53;;;;;;;2.67;1.00;;;19.90;99.90;;;;;;10142481;28;20025;-77
2023/09/01 01:16:49;;;;;;;1.00;0.70;;;20.00;99.90;;;;;;10129304;28;20124;-78
2023/09/01 01:21:43;;;;;;;1.60;1.00;;;20.00;99.90;;;;;;10132778;28;20033;-71
2023/09/01 01:26:36;;;;;;;2.30;1.00;;;19.90;99.90;;;;;;10117290;28;20041;-76
2023/09/01 01:31:27;;;;;;;1.20;0.80;;;19.90;99.90;;;;;;10135817;28;20418;-72
2023/09/01 01:36:28;;;;;;;2.20;1.10;;;19.90;99.90;;;;;;10118119;28;20032;-73
2023/09/01 01:41:25;;;;;;;2.85;1.35;;;19.90;99.90;;;;;;10137744;28;20119;-75
2023/09/01 01:46:17;;;;;;;1.60;1.20;;;19.90;99.90;;;;;;10124850;28;20134;-76
2023/09/01 01:51:07;;;;;;;2.50;0.82;;;19.80;99.90;;;;;;10127136;28;20024;-77
2023/09/01 01:55:58;;;;;;;2.30;1.40;;;19.80;99.90;;;;;;10128676;28;20040;-75
2023/09/01 02:00:49;;;;;;;1.45;1.00;;;19.80;99.90;;;;;;10134940;28;20024;-75
2023/09/01 02:05:40;;;;;;;1.90;0.73;;;19.80;99.90;;;;;;10109613;28;20053;-75
2023/09/01 02:10:30;;;;;;;1.27;0.73;;;19.90;99.90;;;;;;10119985;28;20033;-73
2023/09/01 02:15:21;;;;;;;1.55;0.90;;;19.90;99.90;;;;;;10124107;28;20039;-77
2023/09/01 02:20:18;;;;;;;2.65;0.90;;;19.90;99.90;;;;;;10121956;28;20317;-72
2023/09/01 02:25:09;;;;;;;1.80;1.00;;;19.90;99.90;;;;;;10123526;28;20355;-71
2023/09/01 02:29:59;;;;;;;1.63;0.88;;;20.00;99.90;;;;;;10127014;28;20032;-76
2023/09/01 02:34:50;;;;;;;2.20;0.80;;;20.00;99.90;;;;;;10108300;28;20498;-77
2023/09/01 02:39:40;;;;;;;2.33;0.93;;;20.00;99.90;;;;;;10129069;28;20107;-75
2023/09/01 02:44:31;;;;;;;1.70;0.88;;;19.90;99.90;;;;;;10106886;28;20552;-76
2023/09/01 02:49:22;;;;;;;2.40;1.10;;;20.00;99.90;;;;;;10111440;28;20033;-76
2023/09/01 02:54:12;;;;;;;1.02;0.82;;;20.00;99.90;;;;;;10126524;28;20024;-74
2023/09/01 02:59:04;;;;;;;3.47;1.00;;;19.90;99.90;;;;;;10127168;28;20045;-75
2023/09/01 03:03:54;;;;;;;2.10;1.15;;;20.00;99.90;;;;;;10134195;28;20136;-75
2023/09/01 03:08:45;;;;;;;2.88;0.90;;;20.00;99.90;;;;;;10124665;28;20518;-76
2023/09/01 03:13:35;;;;;;;2.53;0.90;;;19.90;99.90;;;;;;10126512;28;20012;-74
2023/09/01 03:18:26;;;;;;;1.50;0.90;;;19.90;99.90;;;;;;10114864;28;20089;-76
2023/09/01 03:23:17;;;;;;;1.27;0.95;;;20.00;99.90;;;;;;10118557;28;20252;-75
2023/09/01 03:28:07;;;;;;;1.13;0.80;;;19.80;99.90;;;;;;10104787;28;20041;-74
2023/09/01 03:32:58;;;;;;;1.23;0.80;;;19.80;99.90;;;;;;10127388;28;20041;-75
2023/09/01 03:37:49;;;;;;;1.73;0.60;;;19.90;99.90;;;;;;10120575;28;20025;-75
2023/09/01 03:42:40;;;;;;;1.83;1.33;;;19.90;99.90;;;;;;10126678;28;20127;-76
2023/09/01 03:47:31;;;;;;;3.50;0.82;;;19.90;99.90;;;;;;10126157;28;20039;-74
2023/09/01 03:52:22;;;;;;;0.60;0.60;;;19.90;99.90;;;;;;10116558;28;20074;-75
2023/09/01 03:57:15;;;;;;;1.55;0.85;;;19.80;99.90;;;;;;10118462;28;20215;-78
2023/09/01 04:02:06;;;;;;;1.45;0.90;;;19.80;99.90;;;;;;10125882;28;20040;-72
2023/09/01 04:06:56;;;;;;;1.30;1.00;;;19.80;99.90;;;;;;10121575;28;20161;-72
2023/09/01 04:11:47;;;;;;;0.90;0.63;;;19.70;99.90;;;;;;10122110;28;20108;-79
2023/09/01 04:16:39;;;;;;;3.83;0.88;;;19.70;99.90;;;;;;10117826;28;20028;-70
2023/09/01 04:21:29;;;;;;;1.55;0.98;;;19.70;99.90;;;;;;10122398;28;20070;-72
2023/09/01 04:26:20;;;;;;;1.65;0.90;;;19.70;99.90;;;;;;10122623;28;20033;-74
2023/09/01 04:31:15;;;;;;;0.80;0.57;;;19.70;99.90;;;;;;10117985;28;20607;-77
2023/09/01 04:36:06;;;;;;;2.53;0.73;;;19.60;99.90;;;;;;10114748;28;20162;-76
2023/09/01 04:40:57;;;;;;;1.38;0.93;;;19.60;99.90;;;;;;10119709;28;20161;-77
2023/09/01 04:45:48;;;;;;;1.50;0.88;;;19.60;99.90;;;;;;10133808;28;20028;-74
2023/09/01 04:50:39;;;;;;;1.80;1.35;;;19.70;99.90;;;;;;10121934;28;20090;-72
2023/09/01 04:55:29;;;;;;;1.58;0.88;;;19.60;99.90;;;;;;10102163;28;20433;-77
2023/09/01 05:00:20;;;;;;;0.60;0.50;;;19.60;99.90;;;;;;10118289;28;20040;-76
2023/09/01 05:05:12;;;;;;;1.67;1.02;;;19.60;99.90;;;;;;10125206;28;20553;-75
2023/09/01 05:10:03;;;;;;;4.15;0.90;;;19.40;99.90;;;;;;10126345;28;20445;-78
2023/09/01 05:14:54;;;;;;;1.52;1.00;;;19.40;99.90;;;;;;10111938;28;20028;-75
2023/09/01 05:19:45;;;;;;;0.85;0.80;;;19.40;99.90;;;;;;10130766;28;20044;-76
2023/09/01 05:24:35;;;;;;;2.03;1.20;;;19.40;99.90;;;;;;10097068;28;20051;-76
2023/09/01 05:29:27;;;;;;;2.05;0.90;;;19.40;99.90;;;;;;10116249;28;20139;-76
2023/09/01 05:34:18;;;;;;;2.05;1.13;;;19.40;99.90;;;;;;10115331;28;20024;-76
2023/09/01 05:39:09;;;;;;;1.50;0.95;;;19.40;99.90;;;;;;10136487;28;20032;-75
2023/09/01 05:43:59;;;;;;;2.13;1.10;;;19.40;99.90;;;;;;10128659;28;20382;-78
2023/09/01 05:48:50;;;;;;;2.22;1.50;;;19.50;99.90;;;;;;10135506;28;20032;-78
2023/09/01 05:53:43;;;;;;;4.32;1.52;;;19.60;99.90;;;;;;10115304;28;20115;-74
2023/09/01 05:58:35;;;;;;;1.60;0.85;;;19.60;99.90;;;;;;10110183;28;20041;-77
2023/09/01 06:03:26;;;;;;;1.88;1.17;;;19.60;99.90;;;;;;10131942;28;20064;-79
2023/09/01 06:08:16;;;;;;;1.80;0.90;;;19.60;99.90;;;;;;10114824;28;20065;-75
2023/09/01 06:13:10;;;;;;;2.58;0.90;;;19.60;99.90;;;;;;10118681;28;20111;-73
2023/09/01 06:18:01;;;;;;;2.45;1.05;;;19.60;99.90;;;;;;10105165;28;20033;-77
2023/09/01 06:22:54;;;;;;;2.58;1.45;;;19.60;99.90;;;;;;10120500;28;20562;-77
2023/09/01 06:27:46;;;;;;;5.07;1.13;;;19.70;99.90;;;;;;10116838;28;20059;-77
2023/09/01 06:32:36;;;;;;;1.88;1.02;;;19.70;99.90;;;;;;10112033;28;20557;-77
2023/09/01 06:37:27;;;;;;;1.67;1.10;;;19.70;99.90;;;;;;10118616;28;20115;-77
2023/09/01 06:42:17;;;;;;;1.70;1.13;;;19.80;99.90;;;;;;10133802;28;20017;-76
2023/09/01 06:47:08;;;;;;;4.45;1.30;;;19.80;99.90;;;;;;10131434;28;20036;-78
2023/09/01 06:51:59;;;;;;;3.08;0.90;;;19.80;99.90;;;;;;10119124;28;20035;-75
2023/09/01 06:56:49;;;;;;;3.40;1.17;;;19.90;99.90;;;;;;10118790;28;20035;-75
2023/09/01 07:01:40;;;;;;;2.30;1.08;;;19.80;99.90;;;;;;10135500;28;20131;-78
2023/09/01 07:06:30;;;;;;;2.72;1.00;;;19.90;99.90;;;;;;10098829;28;20123;-67
2023/09/01 07:11:21;;;;;;;2.83;0.95;;;19.90;99.90;;;;;;10124735;28;20032;-68
2023/09/01 07:16:12;;;;;;;3.95;1.05;;;19.90;99.90;;;;;;10123210;28;20043;-68
2023/09/01 07:21:03;;;;;;;3.13;1.10;;;19.90;99.90;;;;;;10117501;28;20498;-69
2023/09/01 07:25:54;;;;;;;1.75;1.00;;;20.00;99.90;;;;;;10120757;28;20024;-68
2023/09/01 07:30:45;;;;;;;2.20;0.90;;;20.00;99.90;;;;;;10125070;28;20028;-69
2023/09/01 07:35:35;;;;;;;3.92;1.40;;;20.10;99.90;;;;;;10135296;28;20486;-69
2023/09/01 07:40:27;;;;;;;1.58;0.88;;;20.10;99.90;;;;;;10130488;28;20032;-69
2023/09/01 07:45:18;;;;;;;1.63;0.80;;;20.20;99.90;;;;;;10125287;28;20048;-69
2023/09/01 07:50:09;;;;;;;4.00;0.80;;;20.20;99.90;;;;;;10098894;28;20048;-70
2023/09/01 07:55:00;;;;;;;1.50;0.80;;;20.20;99.90;;;;;;10110562;28;20017;-68
2023/09/01 07:59:51;;;;;;;1.73;0.90;;;20.10;99.90;;;;;;10120959;28;20036;-69
2023/09/01 08:04:41;;;;;;;1.25;0.80;;;20.20;99.90;;;;;;10128775;28;20041;-66
2023/09/01 08:09:32;;;;;;;3.25;1.27;;;20.20;99.90;;;;;;10112653;28;20051;-67
2023/09/01 08:14:22;;;;;;;1.73;1.02;;;20.20;99.90;;;;;;10116234;28;20031;-67
2023/09/01 08:19:13;;;;;;;2.75;1.20;;;20.20;99.90;;;;;;10112950;28;20106;-67
2023/09/01 08:24:04;;;;;;;2.30;1.13;;;20.30;99.90;;;;;;10115226;28;20025;-67
2023/09/01 08:28:56;;;;;;;1.50;0.93;;;20.40;99.90;;;;;;10120912;28;20051;-67
2023/09/01 08:33:46;;;;;;;4.65;1.40;;;20.40;99.90;;;;;;10118529;28;20033;-68
2023/09/01 08:38:37;;;;;;;2.03;1.02;;;20.50;99.90;;;;;;10118428;28;20418;-67
2023/09/01 08:43:34;;;;;;;4.25;1.25;;;20.60;99.90;;;;;;10121691;28;20085;-67
2023/09/01 08:48:25;;;;;;;3.00;1.50;;;20.60;99.90;;;;;;10128875;28;20033;-67
2023/09/01 08:53:15;;;;;;;6.93;1.42;;;20.60;99.90;;;;;;10127625;28;20029;-67
2023/09/01 08:58:06;;;;;;;4.40;1.90;;;20.70;99.90;;;;;;10119231;28;20051;-67
2023/09/01 09:02:57;;;;;;;2.10;1.45;;;20.80;99.90;;;;;;10135699;28;20384;-67
2023/09/01 09:08:03;;;;;;;4.60;1.52;;;20.80;99.90;;;;;;10129247;28;20035;-66
2023/09/01 09:12:53;;;;;;;4.22;1.45;;;20.80;99.90;;;;;;10121956;28;20333;-66
2023/09/01 09:17:46;;;;;;;3.38;1.20;;;20.90;99.90;;;;;;10128629;28;20241;-67
2023/09/01 09:22:56;;;;;;;3.92;1.35;;;20.90;99.90;;;;;;10128754;28;20028;-66
2023/09/01 09:27:47;;;;;;;2.20;1.17;;;20.90;99.90;;;;;;10116134;28;20037;-66
2023/09/01 09:32:38;;;;;;;3.92;1.30;;;20.90;99.90;;;;;;10124467;28;21095;-66
2023/09/01 09:37:28;;;;;;;2.40;1.25;;;20.90;99.90;;;;;;10124564;28;20028;-66
2023/09/01 09:42:36;;;;;;;2.17;1.15;;;21.00;99.90;;;;;;10128231;28;20140;-66
2023/09/01 09:47:28;;;;;;;3.80;1.30;;;21.00;99.90;;;;;;10127614;28;20067;-65
2023/09/01 09:52:19;;;;;;;1.88;1.35;;;21.00;99.90;;;;;;10136397;28;20036;-66
2023/09/01 09:57:15;;;;;;;6.43;1.85;;;21.00;99.90;;;;;;10138124;28;20035;-67
2023/09/01 10:02:35;;;;;;;1.83;1.50;;;21.00;99.90;;;;;;10130547;28;20060;-66
2023/09/01 10:07:26;;;;;;;2.22;1.00;;;21.10;99.90;;;;;;10124128;28;20041;-66
2023/09/01 10:12:17;;;;;;;2.35;1.20;;;21.20;99.90;;;;;;10105524;28;20032;-66
2023/09/01 10:17:12;;;;;;;3.05;1.30;;;21.30;99.90;;;;;;10127784;28;20140;-66
2023/09/01 10:22:02;;;;;;;1.77;1.40;;;21.30;99.90;;;;;;10123761;28;20021;-66
2023/09/01 10:27:08;;;;;;;5.22;2.53;;;21.30;99.90;;;;;;10127150;28;20037;-66
2023/09/01 10:32:16;;;;;;;1.63;1.40;;;21.40;99.90;;;;;;10129858;28;20032;-66
2023/09/01 10:37:24;;;;;;;3.05;1.60;;;21.50;99.90;;;;;;10130236;28;20033;-67
2023/09/01 10:42:15;;;;;;;4.60;1.45;;;21.70;99.90;;;;;;10122490;28;20538;-67
2023/09/01 10:47:32;;;;;;;3.38;1.55;;;21.70;99.90;;;;;;10116839;28;20120;-67
2023/09/01 10:52:28;;;;;;;2.63;1.20;;;21.70;99.90;;;;;;10104194;28;20045;-67
2023/09/01 10:57:19;;;;;;;2.20;1.10;;;21.70;99.90;;;;;;10118770;28;20043;-67
2023/09/01 11:02:28;;;;;;;2.03;1.20;;;21.80;99.90;;;;;;10121340;28;20052;-66
2023/09/01 11:07:19;;;;;;;3.90;1.40;;;21.80;99.90;;;;;;10116624;28;20044;-67
2023/09/01 11:12:13;;;;;;;2.13;1.40;;;21.70;99.90;;;;;;10105702;28;20028;-66
2023/09/01 11:17:04;;;;;;;2.97;1.40;;;21.70;99.90;;;;;;10124493;28;20524;-66
2023/09/01 11:21:55;;;;;;;3.42;1.98;;;21.80;99.90;;;;;;10129055;28;20040;-66
2023/09/01 11:26:46;;;;;;;2.95;1.10;;;21.90;99.90;;;;;;10118051;28;20496;-66
2023/09/01 11:31:38;;;;;;;2.35;1.70;;;22.10;99.90;;;;;;10119681;28;20504;-66
2023/09/01 11:36:28;;;;;;;3.22;1.65;;;22.20;99.90;;;;;;10125431;28;20464;-66
2023/09/01 11:41:20;;;;;;;1.60;1.20;;;22.20;99.90;;;;;;10127605;28;20036;-66
2023/09/01 11:46:11;;;;;;;2.90;1.30;;;22.20;99.90;;;;;;10123424;28;20034;-66
2023/09/01 11:51:02;;;;;;;1.77;1.20;;;22.30;99.90;;;;;;10121718;28;20116;-66
2023/09/01 11:55:58;;;;;;;1.77;1.17;;;22.30;99.90;;;;;;10113052;28;20362;-66
2023/09/01 12:00:49;;;;;;;1.77;1.17;;;22.20;99.90;;;;;;10123187;28;20319;-66
2023/09/01 12:05:40;;;;;;;1.58;1.00;;;22.20;99.90;;;;;;10110146;28;20048;-67
2023/09/01 12:10:32;;;;;;;0.93;0.63;;;22.20;99.90;;;;;;10104438;28;20056;-66
2023/09/01 12:15:22;;;;;;;1.35;1.00;;;22.20;99.90;;;;;;10121471;28;20025;-67
2023/09/01 12:20:13;;;;;;;1.35;0.95;;;22.30;99.90;;;;;;10104207;28;20467;-67
2023/09/01 12:25:04;;;;;;;1.52;0.82;;;22.40;99.90;;;;;;10111097;28;20478;-67
2023/09/01 12:29:54;;;;;;;1.70;1.58;;;22.40;99.90;;;;;;10113658;28;20379;-67
2023/09/01 12:34:45;;;;;;;3.63;1.75;;;22.50;99.90;;;;;;10114470;28;20098;-67
2023/09/01 12:39:37;;;;;;;1.20;0.90;;;22.60;99.90;;;;;;10125367;28;20033;-67
2023/09/01 12:44:30;;;;;;;1.10;0.80;;;22.80;99.90;;;;;;10121706;28;20380;-67
2023/09/01 12:49:21;;;;;;;1.63;0.70;;;22.80;99.90;;;;;;10119733;28;20597;-66
2023/09/01 12:54:13;;;;;;;2.85;1.75;;;22.80;99.90;;;;;;10121518;28;20166;-66
2023/09/01 12:59:03;;;;;;;3.47;1.27;;;22.70;99.90;;;;;;10128557;28;20094;-66
2023/09/01 13:03:54;;;;;;;1.42;0.82;;;22.80;99.90;;;;;;10102587;28;20562;-66
2023/09/01 13:08:44;;;;;;;0.65;0.40;;;23.10;99.90;;;;;;10112481;28;20379;-67
2023/09/01 13:13:38;;;;;;;1.35;1.10;;;23.20;99.90;;;;;;10120969;28;20025;-67
2023/09/01 13:18:29;;;;;;;0.90;0.57;;;23.20;99.90;;;;;;10129501;28;20568;-66
2023/09/01 13:23:19;;;;;;;1.45;0.63;;;23.20;99.90;;;;;;10108051;28;20086;-66
2023/09/01 13:28:10;;;;;;;1.05;0.68;;;23.20;99.90;;;;;;10100672;28;20041;-66
2023/09/01 13:33:00;;;;;;;1.65;0.90;;;23.20;99.90;;;;;;10132260;28;20534;-66
2023/09/01 13:37:51;;;;;;;0.95;0.70;;;23.10;99.90;;;;;;10129766;28;20039;-67
2023/09/01 13:42:42;;;;;;;1.88;1.10;;;23.10;99.90;;;;;;10134905;28;20032;-67
2023/09/01 13:47:32;;;;;;;1.65;1.13;;;23.00;99.90;;;;;;10136802;28;20224;-66
2023/09/01 13:52:23;;;;;;;1.20;0.85;;;23.00;99.90;;;;;;10114268;28;20033;-67
2023/09/01 13:57:14;;;;;;;1.33;0.90;;;23.00;99.90;;;;;;10131368;28;20032;-66
2023/09/01 14:02:05;;;;;;;1.30;0.80;;;22.90;99.90;;;;;;10126027;28;20049;-67
2023/09/01 14:06:55;;;;;;;1.17;0.70;;;22.90;99.90;;;;;;10116263;28;20033;-67
2023/09/01 14:11:46;;;;;;;1.95;0.90;;;23.00;99.90;;;;;;10127443;28;20151;-66
2023/09/01 14:16:37;;;;;;;1.00;0.77;;;22.90;99.90;;;;;;10118063;28;20020;-66
2023/09/01 14:21:27;;;;;;;1.58;0.80;;;22.90;99.90;;;;;;10125992;28;20652;-67
2023/09/01 14:26:18;;;;;;;2.33;1.05;;;23.00;99.90;;;;;;10116812;28;20037;-67
2023/09/01 14:31:09;;;;;;;1.13;0.63;;;23.20;99.90;;;;;;10137206;28;20671;-67
2023/09/01 14:35:59;;;;;;;1.20;0.93;;;23.60;99.90;;;;;;10122432;28;20385;-67
2023/09/01 14:40:50;;;;;;;1.15;0.70;;;23.80;99.90;;;;;;10110032;28;20848;-68
2023/09/01 14:45:42;;;;;;;2.65;0.80;;;23.90;99.90;;;;;;10122724;28;20549;-66
2023/09/01 14:50:33;;;;;;;0.95;0.70;;;24.20;99.90;;;;;;10121150;28;20043;-67
2023/09/01 14:55:24;;;;;;;1.10;0.80;;;24.20;99.90;;;;;;10128194;28;20031;-67
2023/09/01 15:00:15;;;;;;;1.75;0.90;;;24.50;99.90;;;;;;10131515;28;20394;-67
2023/09/01 15:05:09;;;;;;;1.08;0.70;;;24.50;99.90;;;;;;10122683;28;20035;-66
2023/09/01 15:10:00;;;;;;;1.55;0.80;;;24.30;99.90;;;;;;10117729;28;20495;-67
2023/09/01 15:14:52;;;;;;;1.30;0.80;;;24.10;99.90;;;;;;10119731;28;20501;-67
2023/09/01 15:19:43;;;;;;;1.00;0.70;;;24.10;99.90;;;;;;10114223;28;20029;-67
2023/09/01 15:24:33;;;;;;;1.75;0.80;;;24.20;99.90;;;;;;10121360;28;20059;-67
2023/09/01 15:29:24;;;;;;;1.85;0.52;;;24.20;99.90;;;;;;10123830;28;20507;-66
2023/09/01 15:34:15;;;;;;;1.15;0.57;;;24.20;99.90;;;;;;10131439;28;20438;-67
2023/09/01 15:39:06;;;;;;;1.77;0.77;;;24.40;99.90;;;;;;10124671;28;20020;-67
2023/09/01 15:43:56;;;;;;;1.33;0.65;;;24.60;99.90;;;;;;10123033;28;20028;-66
2023/09/01 15:48:47;;;;;;;1.40;0.75;;;24.60;99.90;;;;;;10122850;28;20043;-66
2023/09/01 15:53:38;;;;;;;0.85;0.60;;;24.40;99.90;;;;;;10104636;28;20079;-67
2023/09/01 15:58:52;;;;;;;3.47;0.60;;;24.20;99.90;;;;;;10108772;28;20539;-68
2023/09/01 16:03:50;;;;;;;1.80;1.25;;;24.40;99.90;;;;;;10074565;28;20554;-67
2023/09/01 16:08:41;;;;;;;2.05;1.40;;;24.80;99.90;;;;;;10131475;28;20041;-66
2023/09/01 16:13:32;;;;;;;2.15;0.98;;;25.10;99.90;;;;;;10126191;28;20025;-66
2023/09/01 16:18:23;;;;;;;0.82;0.77;;;25.60;99.90;;;;;;10110235;28;20103;-65
2023/09/01 16:23:15;;;;;;;2.20;0.88;;;25.60;99.90;;;;;;10112822;28;20131;-66
2023/09/01 16:28:06;;;;;;;0.80;0.80;;;25.80;99.90;;;;;;10099621;28;20133;-68
2023/09/01 16:32:56;;;;;;;1.75;0.90;;;26.00;99.90;;;;;;10100984;28;20090;-67
2023/09/01 16:37:47;;;;;;;1.77;0.80;;;26.00;99.90;;;;;;10115714;28;20560;-68
2023/09/01 16:42:39;;;;;;;1.08;0.65;;;25.80;99.90;;;;;;10121398;28;20028;-67
2023/09/01 16:47:30;;;;;;;0.68;0.68;;;25.50;99.90;;;;;;10118814;28;20045;-67
2023/09/01 16:52:21;;;;;;;1.25;0.70;;;25.20;99.90;;;;;;10107455;28;20083;-67
2023/09/01 16:57:11;;;;;;;2.00;1.08;;;25.10;99.90;;;;;;10130517;28;20029;-67
2023/09/01 17:02:03;;;;;;;1.27;1.00;;;25.20;99.90;;;;;;10127851;28;20044;-67
2023/09/01 17:06:54;;;;;;;1.35;0.70;;;25.10;99.90;;;;;;10131529;28;20040;-68
2023/09/01 17:11:45;;;;;;;2.38;1.00;;;25.00;99.90;;;;;;10119229;28;20040;-68
2023/09/01 17:16:36;;;;;;;1.38;0.95;;;25.10;99.90;;;;;;10126110;28;20470;-68
2023/09/01 17:21:26;;;;;;;1.90;1.27;;;25.10;99.90;;;;;;10128042;28;20032;-67
2023/09/01 17:26:17;;;;;;;2.30;1.40;;;25.00;99.90;;;;;;10129090;28;20033;-67
2023/09/01 17:31:08;;;;;;;2.60;1.55;;;25.00;99.90;;;;;;10109855;28;20358;-68
2023/09/01 17:35:58;;;;;;;3.92;1.98;;;25.00;99.90;;;;;;10126237;28;20406;-67
2023/09/01 17:40:49;;;;;;;3.65;1.98;;;25.00;99.90;;;;;;10122938;28;20029;-68
2023/09/01 17:45:40;;;;;;;2.78;1.30;;;24.90;99.90;;;;;;10121852;28;20483;-68
2023/09/01 17:50:30;;;;;;;4.68;1.40;;;24.90;99.90;;;;;;10122886;28;20032;-66
2023/09/01 17:55:21;;;;;;;4.50;2.15;;;24.80;99.90;;;;;;10106789;28;20032;-67
2023/09/01 18:00:12;;;;;;;3.65;1.70;;;24.80;99.90;;;;;;10131387;28;20032;-67
2023/09/01 18:05:04;;;;;;;2.72;1.38;;;24.80;99.90;;;;;;10126211;28;20041;-66
2023/09/01 18:09:55;;;;;;;4.75;1.50;;;24.80;99.90;;;;;;10126603;28;20040;-67
2023/09/01 18:14:46;;;;;;;3.00;1.75;;;24.70;99.90;;;;;;10118066;28;20518;-67
2023/09/01 18:19:38;;;;;;;3.97;2.75;;;24.60;99.90;;;;;;10126797;28;20051;-68
2023/09/01 18:24:29;;;;;;;4.70;2.45;;;24.60;99.90;;;;;;10130974;28;20395;-68
2023/09/01 18:29:22;;;;;;;4.68;2.47;;;24.50;99.90;;;;;;10137472;28;20620;-67
2023/09/01 18:34:13;;;;;;;6.60;3.65;;;24.50;99.90;;;;;;10113355;28;20028;-67
2023/09/01 18:39:05;;;;;;;4.47;2.83;;;24.40;99.90;;;;;;10130709;28;20081;-67
2023/09/01 18:43:58;;;;;;;4.53;2.90;;;24.50;99.90;;;;;;10122271;28;20766;-67
2023/09/01 18:48:49;;;;;;;4.90;3.05;;;24.30;99.90;;;;;;10129681;28;20110;-67
2023/09/01 18:53:41;;;;;;;5.57;4.05;;;24.30;99.90;;;;;;10116559;28;20532;-67
2023/09/01 18:58:38;;;;;;;7.63;4.03;;;24.30;99.90;;;;;;10126464;28;20033;-67
2023/09/01 19:03:29;;;;;;;5.28;2.70;;;24.20;99.90;;;;;;10122450;28;20056;-68
2023/09/01 19:08:30;;;;;;;3.35;2.10;;;24.10;99.90;;;;;;10122292;28;20502;-67
2023/09/01 19:13:22;;;;;;;3.15;1.80;;;24.00;99.90;;;;;;10117759;28;20111;-67
2023/09/01 19:18:12;;;;;;;5.13;2.38;;;24.00;99.90;;;;;;10116659;28;20037;-67
2023/09/01 19:23:13;;;;;;;4.85;2.50;;;24.10;99.90;;;;;;10120167;28;20029;-67
2023/09/01 19:28:05;;;;;;;4.25;2.13;;;24.00;99.90;;;;;;10128384;28;20048;-67
2023/09/01 19:32:56;;;;;;;6.68;2.47;;;24.00;99.90;;;;;;10123930;28;20012;-67
2023/09/01 19:37:53;;;;;;;4.60;2.63;;;24.00;99.90;;;;;;10129398;28;20033;-67
2023/09/01 19:42:44;;;;;;;3.85;2.22;;;23.90;99.90;;;;;;10124348;28;20103;-67
2023/09/01 19:47:35;;;;;;;5.15;2.80;;;23.80;99.90;;;;;;10121817;28;20170;-66
2023/09/01 19:52:26;;;;;;;4.60;2.58;;;23.80;99.90;;;;;;10108602;28;20874;-66
2023/09/01 19:57:17;;;;;;;7.60;3.08;;;23.80;99.90;;;;;;10108506;28;20495;-66
2023/09/01 20:02:14;;;;;;;4.70;2.85;;;23.80;99.90;;;;;;10108406;28;20056;-66
2023/09/01 20:07:05;;;;;;;6.25;3.10;;;23.70;99.90;;;;;;10132464;28;20047;-67
2023/09/01 20:11:55;;;;;;;6.25;2.83;;;23.60;99.90;;;;;;10120643;28;20029;-67
2023/09/01 20:16:46;;;;;;;4.28;2.97;;;23.60;99.90;;;;;;10121117;28;20067;-67
2023/09/01 20:21:37;;;;;;;7.20;3.03;;;23.60;99.90;;;;;;10115645;28;20021;-67
2023/09/01 20:26:27;;;;;;;4.28;2.33;;;23.60;99.90;;;;;;10127259;28;20375;-67
2023/09/01 20:31:18;;;;;;;4.90;2.17;;;23.60;99.90;;;;;;10111538;28;20068;-67
2023/09/01 20:36:08;;;;;;;6.07;2.67;;;23.60;99.90;;;;;;10127359;28;20458;-67
2023/09/01 20:40:59;;;;;;;4.40;2.03;;;23.50;99.90;;;;;;10119610;28;20031;-66
2023/09/01 20:45:50;;;;;;;5.35;2.75;;;23.40;99.90;;;;;;10111448;28;20021;-67
2023/09/01 20:50:42;;;;;;;3.58;1.88;;;23.40;99.90;;;;;;10130509;28;20033;-66
2023/09/01 20:55:33;;;;;;;6.75;2.35;;;23.30;99.90;;;;;;10139793;28;20115;-67
2023/09/01 21:00:25;;;;;;;3.15;1.90;;;23.20;99.90;;;;;;10128712;28;20079;-66
2023/09/01 21:05:17;;;;;;;3.30;2.00;;;23.40;99.90;;;;;;10138517;28;20037;-66
2023/09/01 21:10:09;;;;;;;2.65;1.98;;;23.30;99.90;;;;;;10128775;28;20033;-67
2023/09/01 21:15:01;;;;;;;5.18;3.05;;;23.20;99.90;;;;;;10112946;28;20039;-67
2023/09/01 21:19:52;;;;;;;4.55;1.98;;;23.20;99.90;;;;;;10122049;28;20093;-67
2023/09/01 21:24:42;;;;;;;7.18;2.53;;;23.20;99.90;;;;;;10125903;28;20029;-67
2023/09/01 21:29:34;;;;;;;4.40;2.13;;;23.20;99.90;;;;;;10106810;28;20041;-67
2023/09/01 21:34:25;;;;;;;4.90;2.78;;;23.10;99.90;;;;;;10097471;28;20029;-67
2023/09/01 21:39:16;;;;;;;3.30;2.30;;;23.10;99.90;;;;;;10129875;28;20039;-67
2023/09/01 21:44:06;;;;;;;6.07;2.60;;;23.00;99.90;;;;;;10123384;28;20029;-67
2023/09/01 21:48:57;;;;;;;4.32;2.22;;;22.90;99.90;;;;;;10112665;28;20116;-67
2023/09/01 21:53:48;;;;;;;2.38;1.70;;;22.90;99.90;;;;;;10125906;28;20039;-67
2023/09/01 21:58:38;;;;;;;3.38;2.35;;;22.80;99.90;;;;;;10128986;28;20398;-67
2023/09/01 22:03:29;;;;;;;5.60;2.72;;;22.80;99.90;;;;;;10133609;28;20415;-66
2023/09/01 22:08:20;;;;;;;6.18;2.22;;;22.80;99.90;;;;;;10114351;28;20055;-66
2023/09/01 22:13:12;;;;;;;5.35;1.80;;;22.70;99.90;;;;;;10126222;28;20078;-67
2023/09/01 22:18:05;;;;;;;4.15;2.03;;;22.60;99.90;;;;;;10126478;28;20033;-67
2023/09/01 22:22:55;;;;;;;3.50;1.65;;;22.60;99.90;;;;;;10125452;28;20116;-67
2023/09/01 22:27:46;;;;;;;3.40;1.85;;;22.60;99.90;;;;;;10117746;28;20120;-68
2023/09/01 22:32:37;;;;;;;2.92;1.95;;;22.60;99.90;;;;;;10125256;28;20028;-67
2023/09/01 22:37:27;;;;;;;3.20;1.67;;;22.40;99.90;;;;;;10121879;28;20489;-67
2023/09/01 22:42:18;;;;;;;3.78;1.80;;;22.30;99.90;;;;;;10138344;28;20047;-67
2023/09/01 22:47:08;;;;;;;4.20;2.03;;;22.30;99.90;;;;;;10120755;28;20036;-68
2023/09/01 22:51:59;;;;;;;3.60;1.75;;;22.30;99.90;;;;;;10121857;28;20456;-67
2023/09/01 22:56:50;;;;;;;4.60;2.20;;;22.30;99.90;;;;;;10105776;28;20054;-67
2023/09/01 23:01:40;;;;;;;5.03;2.38;;;22.20;99.90;;;;;;10131728;28;20044;-68
2023/09/01 23:06:31;;;;;;;4.88;2.75;;;22.20;99.90;;;;;;10101072;28;20402;-68
2023/09/01 23:11:21;;;;;;;6.53;2.72;;;22.20;99.90;;;;;;10119802;28;20524;-68
2023/09/01 23:16:12;;;;;;;4.50;2.67;;;22.20;99.90;;;;;;10124806;28;20404;-67
2023/09/01 23:21:03;;;;;;;4.45;2.72;;;22.20;99.90;;;;;;10124187;28;20064;-67
2023/09/01 23:26:00;;;;;;;5.35;2.85;;;22.20;99.90;;;;;;10194706;27;20175;-66
2023/09/01 23:30:51;;;;;;;5.43;3.03;;;22.10;99.90;;;;;;10166806;28;20109;-67
2023/09/01 23:35:42;;;;;;;5.20;2.97;;;22.20;99.90;;;;;;10167879;28;20088;-68
2023/09/01 23:40:33;;;;;;;5.63;2.97;;;22.10;99.90;;;;;;10168739;28;20040;-66
2023/09/01 23:45:24;;;;;;;3.90;2.30;;;22.10;99.90;;;;;;10169939;28;20086;-66
2023/09/01 23:50:15;;;;;;;4.85;2.22;;;22.10;99.90;;;;;;10165277;28;20047;-67
2023/09/01 23:55:05;;;;;;;3.00;2.25;;;22.00;99.90;;;;;;10165594;28;20029;-66
2023/09/01 23:59:57;;;;;;;4.38;2.03;;;22.00;99.90;;;;;;10164548;28;20017;-66
